createdAt,value
2017-08-05T00:00:21.125Z,19.29
2017-08-05T00:01:22.658Z,19.25
2017-08-05T00:02:24.081Z,19.35
2017-08-05T00:03:25.516Z,19.36
2017-08-05T00:04:26.948Z,19.31
2017-08-05T00:05:28.461Z,19.20
2017-08-05T00:06:29.900Z,19.11
2017-08-05T00:07:31.311Z,19.10
2017-08-05T00:08:32.760Z,18.99
2017-08-05T00:09:34.182Z,18.91
2017-08-05T00:10:35.608Z,18.84
2017-08-05T00:11:37.126Z,18.86
2017-08-05T00:12:38.553Z,19.02
2017-08-05T00:13:40.004Z,18.82
2017-08-05T00:14:41.445Z,18.98
2017-08-05T00:15:42.919Z,19.01
2017-08-05T00:16:44.346Z,19.11
2017-08-05T00:17:45.766Z,19.15
2017-08-05T00:18:47.201Z,19.23
2017-08-05T00:19:48.632Z,19.05
2017-08-05T00:20:50.064Z,18.94
2017-08-05T00:21:51.486Z,19.11
2017-08-05T00:22:52.927Z,19.18
2017-08-05T00:23:54.507Z,19.29
2017-08-05T00:24:55.928Z,19.29
2017-08-05T00:25:57.348Z,19.17
2017-08-05T00:26:58.785Z,19.24
2017-08-05T00:28:00.213Z,19.25
2017-08-05T00:29:01.638Z,19.32
2017-08-05T00:30:03.148Z,19.33
2017-08-05T00:31:04.577Z,19.42
2017-08-05T00:32:06.009Z,19.17
2017-08-05T00:33:07.433Z,18.95
2017-08-05T00:34:08.860Z,18.95
2017-08-05T00:35:11.089Z,18.94
2017-08-05T00:36:12.518Z,18.94
2017-08-05T00:37:13.947Z,18.86
2017-08-05T00:38:15.371Z,18.76
2017-08-05T00:39:16.792Z,18.84
2017-08-05T00:40:18.212Z,18.86
2017-08-05T00:41:19.641Z,19.08
2017-08-05T00:42:21.069Z,18.86
2017-08-05T00:43:22.505Z,18.87
2017-08-05T00:44:23.940Z,19.05
2017-08-05T00:45:25.374Z,18.80
2017-08-05T00:46:26.800Z,18.76
2017-08-05T00:47:28.234Z,18.76
2017-08-05T00:48:29.654Z,18.65
2017-08-05T00:49:31.077Z,18.67
2017-08-05T00:50:32.531Z,18.68
2017-08-05T00:51:33.951Z,18.72
2017-08-05T00:52:35.373Z,18.67
2017-08-05T00:53:36.795Z,18.64
2017-08-05T00:54:38.219Z,18.64
2017-08-05T00:55:39.642Z,18.58
2017-08-05T00:56:41.077Z,18.52
2017-08-05T00:57:42.497Z,18.46
2017-08-05T00:58:43.922Z,18.40
2017-08-05T00:59:45.349Z,18.37
2017-08-05T01:00:46.771Z,18.42
2017-08-05T01:01:48.198Z,18.39
2017-08-05T01:02:49.628Z,18.24
2017-08-05T01:03:51.058Z,18.21
2017-08-05T01:04:52.483Z,18.21
2017-08-05T01:05:53.910Z,18.19
2017-08-05T01:06:55.330Z,18.17
2017-08-05T01:07:56.757Z,18.37
2017-08-05T01:08:58.185Z,18.36
2017-08-05T01:09:59.605Z,18.47
2017-08-05T01:11:01.031Z,18.47
2017-08-05T01:12:02.460Z,18.57
2017-08-05T01:13:03.881Z,18.47
2017-08-05T01:14:05.317Z,18.62
2017-08-05T01:15:06.740Z,18.34
2017-08-05T01:16:08.165Z,18.36
2017-08-05T01:17:09.604Z,18.24
2017-08-05T01:18:11.028Z,18.04
2017-08-05T01:19:12.451Z,18.19
2017-08-05T01:20:13.874Z,18.18
2017-08-05T01:21:15.299Z,18.17
2017-08-05T01:22:16.732Z,18.06
2017-08-05T01:23:18.167Z,17.99
2017-08-05T01:24:19.588Z,18.06
2017-08-05T01:25:21.119Z,18.10
2017-08-05T01:26:22.549Z,18.10
2017-08-05T01:27:23.978Z,18.25
2017-08-05T01:28:25.403Z,18.10
2017-08-05T01:29:26.948Z,18.24
2017-08-05T01:30:28.365Z,18.06
2017-08-05T01:31:29.795Z,17.89
2017-08-05T01:32:31.222Z,17.71
2017-08-05T01:33:32.641Z,17.70
2017-08-05T01:34:34.071Z,17.76
2017-08-05T01:35:35.497Z,17.79
2017-08-05T01:36:36.928Z,17.73
2017-08-05T01:37:38.357Z,17.88
2017-08-05T01:38:39.790Z,18.04
2017-08-05T01:39:41.215Z,18.19
2017-08-05T01:40:42.637Z,18.33
2017-08-05T01:41:44.061Z,18.50
2017-08-05T01:42:45.491Z,18.31
2017-08-05T01:43:46.921Z,18.47
2017-08-05T01:44:48.346Z,18.49
2017-08-05T01:45:49.776Z,18.36
2017-08-05T01:46:51.188Z,18.44
2017-08-05T01:47:52.622Z,18.31
2017-08-05T01:48:54.060Z,18.31
2017-08-05T01:49:55.489Z,18.04
2017-08-05T01:50:56.920Z,17.99
2017-08-05T01:51:58.347Z,17.84
2017-08-05T01:52:59.773Z,17.95
2017-08-05T01:54:01.202Z,17.95
2017-08-05T01:55:02.626Z,17.97
2017-08-05T01:56:04.053Z,18.25
2017-08-05T01:57:05.506Z,18.40
2017-08-05T01:58:06.916Z,18.21
2017-08-05T01:59:08.341Z,18.18
2017-08-05T02:00:09.773Z,18.12
2017-08-05T02:01:11.193Z,18.04
2017-08-05T02:02:12.623Z,18.10
2017-08-05T02:03:14.052Z,18.34
2017-08-05T02:04:15.487Z,18.28
2017-08-05T02:05:16.922Z,18.43
2017-08-05T02:06:18.347Z,18.39
2017-08-05T02:07:19.772Z,18.22
2017-08-05T02:08:21.200Z,18.18
2017-08-05T02:09:22.622Z,18.03
2017-08-05T02:10:24.050Z,18.13
2017-08-05T02:11:25.467Z,18.21
2017-08-05T02:12:26.894Z,18.31
2017-08-05T02:13:28.325Z,18.43
2017-08-05T02:14:29.753Z,18.42
2017-08-05T02:15:31.172Z,18.36
2017-08-05T02:16:32.612Z,18.46
2017-08-05T02:17:34.036Z,18.40
2017-08-05T02:18:35.461Z,18.24
2017-08-05T02:19:36.883Z,18.24
2017-08-05T02:20:38.307Z,18.31
2017-08-05T02:21:39.731Z,18.39
2017-08-05T02:22:41.160Z,18.39
2017-08-05T02:23:42.583Z,18.22
2017-08-05T02:24:44.011Z,18.13
2017-08-05T02:25:45.436Z,18.17
2017-08-05T02:26:46.856Z,18.10
2017-08-05T02:27:48.282Z,18.02
2017-08-05T02:28:49.710Z,17.88
2017-08-05T02:29:51.130Z,17.97
2017-08-05T02:30:52.558Z,18.07
2017-08-05T02:31:53.978Z,18.04
2017-08-05T02:32:55.405Z,18.04
2017-08-05T02:33:57.818Z,18.12
2017-08-05T02:34:59.249Z,18.02
2017-08-05T02:36:00.681Z,18.03
2017-08-05T02:37:02.100Z,18.31
2017-08-05T02:38:03.516Z,18.44
2017-08-05T02:39:04.950Z,18.50
2017-08-05T02:40:06.494Z,18.62
2017-08-05T02:41:07.918Z,18.57
2017-08-05T02:42:09.346Z,18.49
2017-08-05T02:43:10.839Z,18.62
2017-08-05T02:44:12.270Z,18.76
2017-08-05T02:45:13.686Z,18.87
2017-08-05T02:46:15.148Z,18.84
2017-08-05T02:47:16.584Z,18.84
2017-08-05T02:48:18.002Z,18.90
2017-08-05T02:49:19.415Z,18.99
2017-08-05T02:50:20.850Z,18.95
2017-08-05T02:51:22.336Z,19.01
2017-08-05T02:52:23.761Z,18.95
2017-08-05T02:53:25.188Z,18.94
2017-08-05T02:54:26.608Z,18.97
2017-08-05T02:55:28.033Z,18.94
2017-08-05T02:56:29.456Z,18.94
2017-08-05T02:57:30.884Z,19.06
2017-08-05T02:58:32.310Z,18.94
2017-08-05T02:59:33.728Z,18.90
2017-08-05T03:00:35.160Z,18.64
2017-08-05T03:01:36.583Z,18.52
2017-08-05T03:02:38.004Z,18.74
2017-08-05T03:03:39.464Z,18.50
2017-08-05T03:04:40.861Z,18.42
2017-08-05T03:05:42.291Z,18.36
2017-08-05T03:06:43.728Z,18.37
2017-08-05T03:07:45.151Z,18.37
2017-08-05T03:08:46.574Z,18.18
2017-08-05T03:09:47.997Z,18.18
2017-08-05T03:10:49.425Z,18.27
2017-08-05T03:11:50.850Z,18.36
2017-08-05T03:12:52.279Z,18.15
2017-08-05T03:13:53.695Z,17.94
2017-08-05T03:14:55.124Z,18.04
2017-08-05T03:15:56.548Z,18.12
2017-08-05T03:16:57.996Z,18.02
2017-08-05T03:17:59.401Z,18.07
2017-08-05T03:19:00.830Z,18.19
2017-08-05T03:20:02.261Z,18.22
2017-08-05T03:21:03.687Z,18.21
2017-08-05T03:22:05.116Z,18.34
2017-08-05T03:23:06.542Z,18.13
2017-08-05T03:24:07.963Z,18.00
2017-08-05T03:25:09.386Z,17.88
2017-08-05T03:26:10.808Z,17.71
2017-08-05T03:27:12.238Z,17.85
2017-08-05T03:28:13.657Z,18.00
2017-08-05T03:29:15.082Z,17.70
2017-08-05T03:30:16.505Z,17.70
2017-08-05T03:31:17.937Z,17.51
2017-08-05T03:32:19.359Z,17.73
2017-08-05T03:33:20.784Z,17.99
2017-08-05T03:34:22.209Z,17.74
2017-08-05T03:35:23.630Z,17.74
2017-08-05T03:36:25.054Z,17.88
2017-08-05T03:37:26.474Z,17.84
2017-08-05T03:38:27.898Z,17.88
2017-08-05T03:39:29.323Z,18.03
2017-08-05T03:40:30.752Z,17.99
2017-08-05T03:41:32.170Z,18.02
2017-08-05T03:42:33.588Z,17.87
2017-08-05T03:43:35.017Z,18.00
2017-08-05T03:44:36.554Z,18.04
2017-08-05T03:45:37.980Z,18.06
2017-08-05T03:46:39.405Z,17.99
2017-08-05T03:47:40.864Z,17.92
2017-08-05T03:48:42.291Z,17.99
2017-08-05T03:49:43.714Z,17.95
2017-08-05T03:50:45.135Z,17.97
2017-08-05T03:51:46.655Z,18.13
2017-08-05T03:52:48.078Z,18.28
2017-08-05T03:53:49.499Z,18.13
2017-08-05T03:54:50.929Z,18.06
2017-08-05T03:55:52.360Z,18.12
2017-08-05T03:56:53.786Z,18.10
2017-08-05T03:57:55.222Z,18.28
2017-08-05T03:58:56.640Z,18.40
2017-08-05T03:59:58.067Z,18.34
2017-08-05T04:00:59.481Z,18.39
2017-08-05T04:02:00.910Z,18.29
2017-08-05T04:03:02.339Z,18.29
2017-08-05T04:04:03.765Z,18.13
2017-08-05T04:05:05.187Z,17.87
2017-08-05T04:06:06.616Z,17.78
2017-08-05T04:07:08.038Z,17.92
2017-08-05T04:08:09.455Z,18.06
2017-08-05T04:09:10.880Z,17.73
2017-08-05T04:10:12.306Z,17.71
2017-08-05T04:11:13.746Z,17.69
2017-08-05T04:12:15.172Z,17.59
2017-08-05T04:13:16.595Z,17.73
2017-08-05T04:14:18.021Z,17.87
2017-08-05T04:15:19.450Z,18.04
2017-08-05T04:16:20.876Z,18.04
2017-08-05T04:17:22.300Z,18.10
2017-08-05T04:18:23.719Z,18.22
2017-08-05T04:19:25.145Z,18.37
2017-08-05T04:20:26.572Z,18.25
2017-08-05T04:21:28.019Z,18.19
2017-08-05T04:22:29.446Z,18.40
2017-08-05T04:23:30.873Z,18.29
2017-08-05T04:24:32.298Z,18.36
2017-08-05T04:25:33.731Z,18.24
2017-08-05T04:26:35.170Z,18.36
2017-08-05T04:27:36.578Z,18.36
2017-08-05T04:28:38.012Z,18.37
2017-08-05T04:29:39.441Z,18.33
2017-08-05T04:30:40.867Z,18.33
2017-08-05T04:31:42.294Z,18.43
2017-08-05T04:32:43.717Z,18.47
2017-08-05T04:33:45.147Z,18.43
2017-08-05T04:34:46.568Z,18.42
2017-08-05T04:35:47.993Z,18.55
2017-08-05T04:36:49.418Z,18.37
2017-08-05T04:37:50.845Z,18.43
2017-08-05T04:38:52.265Z,18.44
2017-08-05T04:39:53.684Z,18.52
2017-08-05T04:40:55.102Z,18.40
2017-08-05T04:41:56.528Z,18.46
2017-08-05T04:42:57.948Z,18.40
2017-08-05T04:43:59.383Z,18.36
2017-08-05T04:45:00.808Z,18.31
2017-08-05T04:46:02.230Z,18.37
2017-08-05T04:47:03.658Z,18.50
2017-08-05T04:48:05.083Z,18.46
2017-08-05T04:49:06.594Z,18.31
2017-08-05T04:50:08.019Z,18.40
2017-08-05T04:51:09.435Z,18.39
2017-08-05T04:52:10.860Z,18.49
2017-08-05T04:53:12.301Z,18.50
2017-08-05T04:54:13.731Z,18.47
2017-08-05T04:55:15.175Z,18.36
2017-08-05T04:56:16.618Z,18.22
2017-08-05T04:57:18.047Z,18.31
2017-08-05T04:58:19.468Z,18.24
2017-08-05T04:59:20.896Z,18.21
2017-08-05T05:00:22.328Z,18.19
2017-08-05T05:01:23.752Z,18.46
2017-08-05T05:02:25.173Z,18.31
2017-08-05T05:03:26.593Z,18.27
2017-08-05T05:04:28.026Z,18.22
2017-08-05T05:05:29.453Z,18.28
2017-08-05T05:06:30.880Z,18.15
2017-08-05T05:07:32.303Z,18.12
2017-08-05T05:08:33.728Z,18.34
2017-08-05T05:09:35.154Z,18.43
2017-08-05T05:10:36.578Z,18.39
2017-08-05T05:11:37.995Z,18.46
2017-08-05T05:12:39.422Z,18.28
2017-08-05T05:13:40.847Z,18.31
2017-08-05T05:14:42.270Z,18.36
2017-08-05T05:15:43.690Z,18.43
2017-08-05T05:16:45.117Z,18.44
2017-08-05T05:17:46.539Z,18.47
2017-08-05T05:18:47.976Z,18.39
2017-08-05T05:19:49.404Z,18.40
2017-08-05T05:20:50.834Z,18.27
2017-08-05T05:21:52.258Z,18.40
2017-08-05T05:22:53.686Z,18.43
2017-08-05T05:23:55.111Z,18.54
2017-08-05T05:24:56.533Z,18.49
2017-08-05T05:25:57.967Z,18.44
2017-08-05T05:26:59.389Z,18.46
2017-08-05T05:28:00.810Z,18.43
2017-08-05T05:29:02.243Z,18.52
2017-08-05T05:30:03.667Z,18.55
2017-08-05T05:31:05.103Z,18.67
2017-08-05T05:32:06.516Z,18.42
2017-08-05T05:33:07.939Z,18.46
2017-08-05T05:34:09.358Z,18.40
2017-08-05T05:35:10.786Z,18.37
2017-08-05T05:36:12.217Z,18.34
2017-08-05T05:37:13.636Z,18.25
2017-08-05T05:38:15.068Z,18.25
2017-08-05T05:39:16.491Z,18.18
2017-08-05T05:40:17.914Z,18.39
2017-08-05T05:41:19.355Z,18.39
2017-08-05T05:42:20.781Z,18.55
2017-08-05T05:43:22.203Z,18.54
2017-08-05T05:44:23.626Z,18.72
2017-08-05T05:45:25.051Z,18.73
2017-08-05T05:46:26.481Z,18.59
2017-08-05T05:47:27.902Z,18.62
2017-08-05T05:48:29.326Z,18.50
2017-08-05T05:49:33.088Z,18.40
2017-08-05T05:50:34.512Z,18.44
2017-08-05T05:51:35.930Z,18.37
2017-08-05T05:52:37.359Z,18.46
2017-08-05T05:53:38.783Z,18.42
2017-08-05T05:54:40.211Z,18.50
2017-08-05T05:55:41.643Z,18.47
2017-08-05T05:56:43.063Z,18.64
2017-08-05T05:57:44.491Z,18.84
2017-08-05T05:58:45.917Z,18.82
2017-08-05T05:59:47.346Z,18.67
2017-08-05T06:00:48.766Z,18.84
2017-08-05T06:01:50.192Z,18.94
2017-08-05T06:02:51.616Z,18.76
2017-08-05T06:03:53.039Z,18.65
2017-08-05T06:04:54.469Z,18.61
2017-08-05T06:05:55.898Z,18.44
2017-08-05T06:06:57.322Z,18.40
2017-08-05T06:07:58.755Z,18.46
2017-08-05T06:09:00.175Z,18.54
2017-08-05T06:10:01.608Z,18.79
2017-08-05T06:11:03.047Z,18.84
2017-08-05T06:12:04.478Z,18.82
2017-08-05T06:13:05.900Z,18.95
2017-08-05T06:14:07.331Z,18.82
2017-08-05T06:15:08.764Z,18.84
2017-08-05T06:16:10.193Z,18.94
2017-08-05T06:17:11.623Z,18.74
2017-08-05T06:18:13.048Z,18.91
2017-08-05T06:19:14.540Z,18.92
2017-08-05T06:20:15.969Z,19.06
2017-08-05T06:21:17.407Z,19.13
2017-08-05T06:22:18.885Z,18.91
2017-08-05T06:23:20.312Z,18.79
2017-08-05T06:24:21.735Z,18.62
2017-08-05T06:25:23.162Z,18.72
2017-08-05T06:26:24.586Z,18.68
2017-08-05T06:27:26.020Z,18.40
2017-08-05T06:28:27.443Z,18.25
2017-08-05T06:29:28.868Z,18.49
2017-08-05T06:30:30.298Z,18.52
2017-08-05T06:31:31.725Z,18.61
2017-08-05T06:32:33.151Z,18.65
2017-08-05T06:33:34.567Z,18.64
2017-08-05T06:34:36.002Z,18.58
2017-08-05T06:35:37.427Z,18.77
2017-08-05T06:36:38.862Z,18.76
2017-08-05T06:37:40.292Z,18.91
2017-08-05T06:38:41.719Z,18.58
2017-08-05T06:39:43.140Z,18.44
2017-08-05T06:40:44.570Z,18.44
2017-08-05T06:41:45.991Z,18.62
2017-08-05T06:42:47.417Z,18.65
2017-08-05T06:43:48.850Z,18.61
2017-08-05T06:44:50.275Z,18.42
2017-08-05T06:45:51.701Z,18.42
2017-08-05T06:46:53.128Z,18.10
2017-08-05T06:47:54.551Z,18.06
2017-08-05T06:48:55.973Z,18.04
2017-08-05T06:49:57.403Z,18.37
2017-08-05T06:50:58.831Z,18.43
2017-08-05T06:52:00.256Z,18.62
2017-08-05T06:53:01.676Z,18.68
2017-08-05T06:54:03.101Z,18.87
2017-08-05T06:55:04.527Z,18.79
2017-08-05T06:56:05.950Z,18.84
2017-08-05T06:57:07.370Z,18.87
2017-08-05T06:58:08.803Z,18.90
2017-08-05T06:59:10.231Z,18.86
2017-08-05T07:00:11.668Z,18.87
2017-08-05T07:01:13.093Z,18.90
2017-08-05T07:02:14.522Z,18.80
2017-08-05T07:03:15.951Z,18.79
2017-08-05T07:04:17.377Z,18.50
2017-08-05T07:05:18.804Z,18.67
2017-08-05T07:06:20.244Z,18.84
2017-08-05T07:07:21.668Z,18.98
2017-08-05T07:08:23.099Z,18.94
2017-08-05T07:09:24.536Z,18.98
2017-08-05T07:10:25.962Z,18.94
2017-08-05T07:11:27.389Z,19.08
2017-08-05T07:12:28.817Z,18.99
2017-08-05T07:13:30.244Z,18.87
2017-08-05T07:14:31.679Z,18.92
2017-08-05T07:15:33.105Z,18.86
2017-08-05T07:16:34.529Z,18.91
2017-08-05T07:17:35.951Z,19.11
2017-08-05T07:18:37.377Z,18.99
2017-08-05T07:19:38.807Z,18.95
2017-08-05T07:20:40.232Z,18.79
2017-08-05T07:21:41.670Z,18.83
2017-08-05T07:22:43.101Z,18.70
2017-08-05T07:23:44.619Z,18.76
2017-08-05T07:24:46.039Z,18.64
2017-08-05T07:25:47.464Z,18.68
2017-08-05T07:26:48.938Z,18.90
2017-08-05T07:27:50.371Z,18.67
2017-08-05T07:28:51.790Z,18.76
2017-08-05T07:29:53.218Z,18.83
2017-08-05T07:30:54.649Z,18.83
2017-08-05T07:31:56.075Z,18.91
2017-08-05T07:32:57.511Z,18.83
2017-08-05T07:33:59.046Z,18.76
2017-08-05T07:35:00.482Z,18.74
2017-08-05T07:36:01.907Z,18.70
2017-08-05T07:37:03.336Z,18.86
2017-08-05T07:38:04.840Z,18.80
2017-08-05T07:39:06.275Z,19.02
2017-08-05T07:40:07.707Z,19.02
2017-08-05T07:41:09.134Z,19.11
2017-08-05T07:42:10.573Z,19.06
2017-08-05T07:43:12.004Z,18.97
2017-08-05T07:44:13.427Z,18.92
2017-08-05T07:45:14.860Z,18.77
2017-08-05T07:46:16.288Z,18.91
2017-08-05T07:47:17.713Z,18.94
2017-08-05T07:48:19.153Z,18.83
2017-08-05T07:49:20.578Z,18.86
2017-08-05T07:50:22.009Z,18.95
2017-08-05T07:51:23.434Z,18.83
2017-08-05T07:52:24.862Z,18.97
2017-08-05T07:53:26.290Z,18.79
2017-08-05T07:54:27.712Z,18.86
2017-08-05T07:55:29.139Z,18.90
2017-08-05T07:56:30.569Z,19.02
2017-08-05T07:57:31.993Z,19.14
2017-08-05T07:58:33.415Z,19.10
2017-08-05T07:59:34.841Z,19.06
2017-08-05T08:00:36.272Z,18.98
2017-08-05T08:01:37.694Z,18.94
2017-08-05T08:02:39.122Z,18.97
2017-08-05T08:03:40.541Z,18.98
2017-08-05T08:04:41.977Z,19.08
2017-08-05T08:05:43.399Z,18.97
2017-08-05T08:06:44.829Z,18.91
2017-08-05T08:07:46.260Z,18.84
2017-08-05T08:08:47.689Z,18.74
2017-08-05T08:09:49.111Z,18.62
2017-08-05T08:10:50.540Z,18.54
2017-08-05T08:11:51.972Z,18.47
2017-08-05T08:12:53.396Z,18.36
2017-08-05T08:13:54.830Z,18.50
2017-08-05T08:14:56.261Z,18.87
2017-08-05T08:15:57.680Z,18.86
2017-08-05T08:16:59.111Z,19.01
2017-08-05T08:18:00.539Z,19.13
2017-08-05T08:19:01.968Z,19.06
2017-08-05T08:20:03.402Z,19.05
2017-08-05T08:21:04.832Z,19.01
2017-08-05T08:22:06.257Z,19.02
2017-08-05T08:23:07.686Z,19.13
2017-08-05T08:24:09.102Z,19.06
2017-08-05T08:25:10.531Z,18.84
2017-08-05T08:26:11.959Z,18.87
2017-08-05T08:27:13.387Z,18.82
2017-08-05T08:28:14.813Z,19.06
2017-08-05T08:29:16.240Z,18.92
2017-08-05T08:30:18.188Z,18.98
2017-08-05T08:31:19.046Z,19.11
2017-08-05T08:32:20.467Z,19.20
2017-08-05T08:33:21.903Z,19.32
2017-08-05T08:34:23.328Z,19.14
2017-08-05T08:35:24.762Z,19.13
2017-08-05T08:36:26.180Z,19.24
2017-08-05T08:37:27.609Z,19.29
2017-08-05T08:38:29.040Z,19.32
2017-08-05T08:39:30.468Z,19.54
2017-08-05T08:40:31.897Z,19.42
2017-08-05T08:41:33.320Z,19.31
2017-08-05T08:42:34.758Z,19.31
2017-08-05T08:43:36.186Z,19.46
2017-08-05T08:44:37.618Z,19.23
2017-08-05T08:45:39.049Z,19.43
2017-08-05T08:46:40.470Z,19.17
2017-08-05T08:47:41.910Z,19.14
2017-08-05T08:48:43.335Z,19.25
2017-08-05T08:49:44.765Z,19.29
2017-08-05T08:50:46.194Z,19.40
2017-08-05T08:51:47.620Z,19.58
2017-08-05T08:52:49.049Z,19.57
2017-08-05T08:53:50.486Z,19.72
2017-08-05T08:54:51.922Z,19.76
2017-08-05T08:55:53.353Z,19.66
2017-08-05T08:56:54.779Z,19.76
2017-08-05T08:57:56.212Z,19.94
2017-08-05T08:58:57.644Z,19.94
2017-08-05T08:59:59.071Z,19.86
2017-08-05T09:01:00.505Z,19.87
2017-08-05T09:02:01.931Z,19.80
2017-08-05T09:03:03.355Z,19.88
2017-08-05T09:04:04.792Z,19.84
2017-08-05T09:05:06.222Z,19.86
2017-08-05T09:06:07.653Z,19.83
2017-08-05T09:07:09.081Z,19.69
2017-08-05T09:08:10.506Z,19.73
2017-08-05T09:09:11.934Z,19.79
2017-08-05T09:10:13.360Z,19.50
2017-08-05T09:11:14.788Z,19.47
2017-08-05T09:12:16.229Z,19.58
2017-08-05T09:13:17.652Z,19.50
2017-08-05T09:14:19.077Z,19.84
2017-08-05T09:15:20.516Z,19.72
2017-08-05T09:16:21.952Z,19.78
2017-08-05T09:17:23.378Z,19.76
2017-08-05T09:18:24.803Z,19.69
2017-08-05T09:19:26.231Z,19.63
2017-08-05T09:20:27.656Z,19.53
2017-08-05T09:21:29.095Z,19.61
2017-08-05T09:22:30.523Z,19.87
2017-08-05T09:23:31.951Z,19.73
2017-08-05T09:24:33.373Z,19.93
2017-08-05T09:25:34.808Z,19.98
2017-08-05T09:26:36.228Z,19.73
2017-08-05T09:27:37.665Z,19.84
2017-08-05T09:28:39.087Z,19.93
2017-08-05T09:29:40.532Z,20.10
2017-08-05T09:30:41.967Z,20.02
2017-08-05T09:31:43.400Z,20.05
2017-08-05T09:32:44.833Z,20.13
2017-08-05T09:33:46.257Z,20.20
2017-08-05T09:34:47.695Z,20.25
2017-08-05T09:35:49.121Z,20.34
2017-08-05T09:36:50.548Z,20.13
2017-08-05T09:37:51.983Z,20.18
2017-08-05T09:38:53.435Z,20.12
2017-08-05T09:39:54.862Z,20.02
2017-08-05T09:40:56.299Z,19.95
2017-08-05T09:41:57.720Z,19.97
2017-08-05T09:42:59.143Z,19.97
2017-08-05T09:44:00.582Z,19.97
2017-08-05T09:45:02.007Z,19.84
2017-08-05T09:46:03.446Z,20.02
2017-08-05T09:47:04.870Z,20.09
2017-08-05T09:48:06.299Z,19.76
2017-08-05T09:49:07.745Z,19.83
2017-08-05T09:50:09.173Z,19.95
2017-08-05T09:51:10.631Z,20.08
2017-08-05T09:52:12.049Z,19.95
2017-08-05T09:53:13.499Z,20.08
2017-08-05T09:54:14.906Z,19.94
2017-08-05T09:55:16.366Z,20.08
2017-08-05T09:56:17.800Z,20.08
2017-08-05T09:57:19.227Z,20.18
2017-08-05T09:58:20.732Z,20.16
2017-08-05T09:59:22.158Z,20.06
2017-08-05T10:00:23.582Z,20.09
2017-08-05T10:01:25.039Z,20.18
2017-08-05T10:02:26.485Z,20.10
2017-08-05T10:03:27.940Z,20.02
2017-08-05T10:04:29.370Z,19.94
2017-08-05T10:05:30.833Z,19.69
2017-08-05T10:06:32.261Z,19.86
2017-08-05T10:07:33.693Z,19.97
2017-08-05T10:08:35.128Z,20.06
2017-08-05T10:09:36.554Z,20.15
2017-08-05T10:10:37.983Z,19.95
2017-08-05T10:11:39.412Z,19.93
2017-08-05T10:12:40.852Z,19.88
2017-08-05T10:13:42.291Z,19.80
2017-08-05T10:14:43.720Z,19.88
2017-08-05T10:15:45.147Z,19.87
2017-08-05T10:16:46.601Z,19.94
2017-08-05T10:17:48.027Z,19.95
2017-08-05T10:18:49.460Z,20.00
2017-08-05T10:19:50.885Z,20.03
2017-08-05T10:20:52.325Z,19.84
2017-08-05T10:21:53.747Z,19.65
2017-08-05T10:22:55.184Z,19.58
2017-08-05T10:23:56.618Z,19.63
2017-08-05T10:24:58.042Z,19.60
2017-08-05T10:25:59.471Z,19.61
2017-08-05T10:27:00.907Z,19.47
2017-08-05T10:28:02.343Z,19.46
2017-08-05T10:29:03.773Z,19.57
2017-08-05T10:30:05.209Z,19.57
2017-08-05T10:31:06.636Z,19.58
2017-08-05T10:32:08.073Z,19.53
2017-08-05T10:33:09.506Z,19.33
2017-08-05T10:34:10.946Z,19.38
2017-08-05T10:35:12.386Z,19.14
2017-08-05T10:36:13.823Z,19.01
2017-08-05T10:37:15.253Z,19.01
2017-08-05T10:38:16.681Z,18.94
2017-08-05T10:39:18.124Z,18.92
2017-08-05T10:40:19.547Z,18.91
2017-08-05T10:41:20.983Z,18.95
2017-08-05T10:42:22.407Z,19.08
2017-08-05T10:43:23.846Z,18.92
2017-08-05T10:44:25.276Z,19.28
2017-08-05T10:45:26.705Z,19.29
2017-08-05T10:46:28.138Z,19.13
2017-08-05T10:47:29.584Z,19.21
2017-08-05T10:48:31.012Z,19.20
2017-08-05T10:49:32.442Z,19.11
2017-08-05T10:50:33.867Z,19.11
2017-08-05T10:51:35.298Z,18.91
2017-08-05T10:52:36.733Z,19.08
2017-08-05T10:53:38.176Z,18.86
2017-08-05T10:54:39.590Z,19.01
2017-08-05T10:55:41.023Z,19.17
2017-08-05T10:56:42.446Z,19.33
2017-08-05T10:57:43.874Z,19.29
2017-08-05T10:58:45.302Z,19.10
2017-08-05T10:59:46.730Z,19.05
2017-08-05T11:00:48.162Z,19.11
2017-08-05T11:01:49.591Z,19.18
2017-08-05T11:02:51.019Z,19.20
2017-08-05T11:03:52.449Z,19.23
2017-08-05T11:04:53.873Z,19.13
2017-08-05T11:05:55.301Z,18.84
2017-08-05T11:06:56.730Z,18.73
2017-08-05T11:07:58.156Z,18.68
2017-08-05T11:08:59.583Z,18.65
2017-08-05T11:10:01.011Z,18.47
2017-08-05T11:11:02.440Z,18.70
2017-08-05T11:12:03.867Z,18.76
2017-08-05T11:13:05.291Z,18.95
2017-08-05T11:14:06.718Z,19.18
2017-08-05T11:15:08.149Z,18.87
2017-08-05T11:16:09.583Z,18.86
2017-08-05T11:17:11.012Z,18.95
2017-08-05T11:18:12.442Z,19.13
2017-08-05T11:19:13.872Z,19.39
2017-08-05T11:20:15.299Z,19.48
2017-08-05T11:21:16.726Z,19.39
2017-08-05T11:22:18.154Z,19.50
2017-08-05T11:23:19.582Z,19.20
2017-08-05T11:24:21.024Z,19.32
2017-08-05T11:25:22.548Z,19.13
2017-08-05T11:26:23.974Z,19.21
2017-08-05T11:27:25.394Z,19.23
2017-08-05T11:28:26.835Z,19.40
2017-08-05T11:29:28.267Z,19.40
2017-08-05T11:30:29.693Z,19.31
2017-08-05T11:31:31.118Z,19.65
2017-08-05T11:32:32.575Z,19.88
2017-08-05T11:33:34.009Z,19.95
2017-08-05T11:34:35.444Z,19.94
2017-08-05T11:35:37.006Z,19.93
2017-08-05T11:36:38.429Z,19.84
2017-08-05T11:37:39.867Z,20.08
2017-08-05T11:38:41.299Z,20.08
2017-08-05T11:39:42.735Z,20.12
2017-08-05T11:40:44.166Z,20.15
2017-08-05T11:41:45.597Z,20.27
2017-08-05T11:42:47.038Z,20.10
2017-08-05T11:43:48.459Z,19.97
2017-08-05T11:44:49.894Z,20.02
2017-08-05T11:45:51.326Z,20.12
2017-08-05T11:46:52.772Z,19.97
2017-08-05T11:47:54.204Z,19.76
2017-08-05T11:48:55.645Z,19.90
2017-08-05T11:49:57.069Z,20.18
2017-08-05T11:50:58.510Z,20.30
2017-08-05T11:51:59.939Z,20.39
2017-08-05T11:53:01.375Z,20.30
2017-08-05T11:54:02.802Z,20.34
2017-08-05T11:55:04.232Z,20.49
2017-08-05T11:56:05.667Z,20.53
2017-08-05T11:57:07.094Z,20.25
2017-08-05T11:58:08.523Z,20.33
2017-08-05T11:59:09.970Z,20.31
2017-08-05T12:00:11.411Z,20.10
2017-08-05T12:01:12.838Z,20.06
2017-08-05T12:02:14.280Z,20.02
2017-08-05T12:03:15.715Z,20.20
2017-08-05T12:04:17.172Z,20.03
2017-08-05T12:05:18.580Z,20.28
2017-08-05T12:06:20.017Z,20.10
2017-08-05T12:07:21.443Z,19.97
2017-08-05T12:08:22.874Z,20.09
2017-08-05T12:09:24.302Z,19.97
2017-08-05T12:10:25.742Z,19.98
2017-08-05T12:11:27.174Z,20.15
2017-08-05T12:12:28.605Z,20.16
2017-08-05T12:13:30.037Z,19.86
2017-08-05T12:14:31.486Z,19.58
2017-08-05T12:15:32.899Z,19.83
2017-08-05T12:16:34.334Z,19.76
2017-08-05T12:17:35.777Z,19.88
2017-08-05T12:18:37.211Z,19.84
2017-08-05T12:19:38.638Z,20.09
2017-08-05T12:20:40.082Z,20.09
2017-08-05T12:21:41.515Z,20.16
2017-08-05T12:22:42.957Z,20.21
2017-08-05T12:23:44.394Z,20.49
2017-08-05T12:24:45.825Z,20.35
2017-08-05T12:25:47.267Z,20.28
2017-08-05T12:26:48.701Z,20.06
2017-08-05T12:27:50.129Z,19.88
2017-08-05T12:28:51.563Z,19.63
2017-08-05T12:29:52.993Z,19.55
2017-08-05T12:30:54.427Z,19.54
2017-08-05T12:31:55.874Z,19.08
2017-08-05T12:32:57.313Z,19.31
2017-08-05T12:33:58.754Z,19.46
2017-08-05T12:35:00.185Z,19.38
2017-08-05T12:36:01.618Z,19.38
2017-08-05T12:37:03.052Z,19.53
2017-08-05T12:38:04.479Z,19.53
2017-08-05T12:39:06.424Z,19.65
2017-08-05T12:40:07.861Z,19.79
2017-08-05T12:41:09.282Z,20.08
2017-08-05T12:42:10.718Z,20.12
2017-08-05T12:43:12.157Z,20.47
2017-08-05T12:44:13.608Z,21.01
2017-08-05T12:45:15.040Z,21.19
2017-08-05T12:46:16.570Z,21.14
2017-08-05T12:47:18.016Z,21.19
2017-08-05T12:48:19.445Z,21.01
2017-08-05T12:49:20.884Z,20.93
2017-08-05T12:50:22.384Z,21.14
2017-08-05T12:51:23.824Z,21.29
2017-08-05T12:52:25.249Z,21.20
2017-08-05T12:53:26.686Z,20.93
2017-08-05T12:54:28.125Z,21.29
2017-08-05T12:55:29.564Z,21.30
2017-08-05T12:56:31.005Z,21.64
2017-08-05T12:57:32.437Z,21.75
2017-08-05T12:58:33.879Z,21.92
2017-08-05T12:59:35.307Z,22.09
2017-08-05T13:00:36.741Z,22.14
2017-08-05T13:01:38.177Z,22.04
2017-08-05T13:02:39.605Z,21.79
2017-08-05T13:03:41.048Z,21.83
2017-08-05T13:04:42.572Z,21.76
2017-08-05T13:05:44.000Z,21.66
2017-08-05T13:06:45.432Z,21.36
2017-08-05T13:07:46.870Z,21.32
2017-08-05T13:08:48.305Z,21.19
2017-08-05T13:09:49.749Z,20.95
2017-08-05T13:10:51.188Z,20.98